sensor_id;sensor_type;location;lat;lon;timestamp;pressure;altitude;pressure_sealevel;temperature;humidity
62849;BME280;48941;49.516;8.286;2024-02-21T00:00:20;101381.53;;;8.71;100.00
62849;BME280;48941;49.516;8.286;2024-02-21T00:02:47;101371.75;;;8.72;100.00
62849;BME280;48941;49.516;8.286;2024-02-21T00:05:15;101377.91;;;8.72;100.00
62849;BME280;48941;49.516;8.286;2024-02-21T00:07:44;101381.59;;;8.70;100.00
62849;BME280;48941;49.516;8.286;2024-02-21T00:10:12;101378.25;;;8.66;100.00
62849;BME280;48941;49.516;8.286;2024-02-21T00:12:40;101379.28;;;8.64;100.00
62849;BME280;48941;49.516;8.286;2024-02-21T00:15:08;101375.53;;;8.68;100.00
62849;BME280;48941;49.516;8.286;2024-02-21T00:17:36;101371.81;;;8.70;100.00
62849;BME280;48941;49.516;8.286;2024-02-21T00:20:05;101358.47;;;8.72;100.00
62849;BME280;48941;49.516;8.286;2024-02-21T00:22:33;101357.44;;;8.74;100.00
62849;BME280;48941;49.516;8.286;2024-02-21T00:25:03;101351.09;;;8.77;100.00
62849;BME280;48941;49.516;8.286;2024-02-21T00:27:31;101349.22;;;8.79;100.00
62849;BME280;48941;49.516;8.286;2024-02-21T00:29:58;101350.91;;;8.80;100.00
62849;BME280;48941;49.516;8.286;2024-02-21T00:32:26;101336.78;;;8.80;100.00
62849;BME280;48941;49.516;8.286;2024-02-21T00:34:54;101334.97;;;8.80;100.00
62849;BME280;48941;49.516;8.286;2024-02-21T00:37:22;101327.84;;;8.81;100.00
62849;BME280;48941;49.516;8.286;2024-02-21T00:39:50;101329.56;;;8.82;100.00
62849;BME280;48941;49.516;8.286;2024-02-21T00:42:19;101331.47;;;8.80;100.00
62849;BME280;48941;49.516;8.286;2024-02-21T00:44:47;101323.59;;;8.78;100.00
62849;BME280;48941;49.516;8.286;2024-02-21T00:47:15;101322.81;;;8.76;100.00
62849;BME280;48941;49.516;8.286;2024-02-21T00:49:43;101315.69;;;8.76;100.00
62849;BME280;48941;49.516;8.286;2024-02-21T00:52:10;101316.56;;;8.77;100.00
62849;BME280;48941;49.516;8.286;2024-02-21T00:54:38;101314.94;;;8.74;100.00
62849;BME280;48941;49.516;8.286;2024-02-21T00:57:20;101303.66;;;8.71;100.00
62849;BME280;48941;49.516;8.286;2024-02-21T00:59:47;101289.41;;;8.72;100.00
62849;BME280;48941;49.516;8.286;2024-02-21T01:02:15;101282.41;;;8.71;100.00
62849;BME280;48941;49.516;8.286;2024-02-21T01:04:43;101286.06;;;8.68;100.00
62849;BME280;48941;49.516;8.286;2024-02-21T01:07:11;101284.28;;;8.69;100.00
62849;BME280;48941;49.516;8.286;2024-02-21T01:09:39;101290.44;;;8.69;100.00
62849;BME280;48941;49.516;8.286;2024-02-21T01:12:08;101291.38;;;8.68;100.00
62849;BME280;48941;49.516;8.286;2024-02-21T01:14:37;101294.16;;;8.67;100.00
62849;BME280;48941;49.516;8.286;2024-02-21T01:17:04;101285.22;;;8.68;100.00
62849;BME280;48941;49.516;8.286;2024-02-21T01:19:33;101282.84;;;8.63;100.00
62849;BME280;48941;49.516;8.286;2024-02-21T01:22:01;101278.38;;;8.64;100.00
62849;BME280;48941;49.516;8.286;2024-02-21T01:24:28;101274.78;;;8.65;100.00
62849;BME280;48941;49.516;8.286;2024-02-21T01:26:56;101270.25;;;8.67;100.00
62849;BME280;48941;49.516;8.286;2024-02-21T01:29:24;101278.28;;;8.65;100.00
62849;BME280;48941;49.516;8.286;2024-02-21T01:31:53;101283.59;;;8.65;100.00
62849;BME280;48941;49.516;8.286;2024-02-21T01:34:21;101280.94;;;8.65;100.00
62849;BME280;48941;49.516;8.286;2024-02-21T01:36:49;101276.56;;;8.64;100.00
62849;BME280;48941;49.516;8.286;2024-02-21T01:39:16;101277.44;;;8.65;100.00
62849;BME280;48941;49.516;8.286;2024-02-21T01:41:45;101277.44;;;8.65;100.00
62849;BME280;48941;49.516;8.286;2024-02-21T01:44:13;101274.88;;;8.63;100.00
62849;BME280;48941;49.516;8.286;2024-02-21T01:46:41;101266.91;;;8.63;100.00
62849;BME280;48941;49.516;8.286;2024-02-21T01:49:10;101255.31;;;8.64;100.00
62849;BME280;48941;49.516;8.286;2024-02-21T01:51:38;101257.91;;;8.66;100.00
62849;BME280;48941;49.516;8.286;2024-02-21T01:54:06;101252.66;;;8.64;100.00
62849;BME280;48941;49.516;8.286;2024-02-21T01:56:34;101263.28;;;8.64;100.00
62849;BME280;48941;49.516;8.286;2024-02-21T01:59:02;101265.94;;;8.64;100.00
62849;BME280;48941;49.516;8.286;2024-02-21T02:01:30;101259.78;;;8.64;100.00
62849;BME280;48941;49.516;8.286;2024-02-21T02:03:59;101256.38;;;8.62;100.00
62849;BME280;48941;49.516;8.286;2024-02-21T02:06:27;101244.03;;;8.61;100.00
62849;BME280;48941;49.516;8.286;2024-02-21T02:08:55;101246.69;;;8.61;100.00
62849;BME280;48941;49.516;8.286;2024-02-21T02:11:24;101232.53;;;8.60;100.00
62849;BME280;48941;49.516;8.286;2024-02-21T02:13:52;101235.28;;;8.58;100.00
62849;BME280;48941;49.516;8.286;2024-02-21T02:16:19;101229.03;;;8.60;100.00
62849;BME280;48941;49.516;8.286;2024-02-21T02:18:47;101233.41;;;8.61;100.00
62849;BME280;48941;49.516;8.286;2024-02-21T02:21:23;101225.34;;;8.62;100.00
62849;BME280;48941;49.516;8.286;2024-02-21T02:23:55;101216.38;;;8.65;100.00
62849;BME280;48941;49.516;8.286;2024-02-21T02:26:23;101205.91;;;8.62;100.00
62849;BME280;48941;49.516;8.286;2024-02-21T02:28:51;101202.41;;;8.61;100.00
62849;BME280;48941;49.516;8.286;2024-02-21T02:31:18;101187.41;;;8.60;100.00
62849;BME280;48941;49.516;8.286;2024-02-21T02:33:46;101182.19;;;8.58;100.00
62849;BME280;48941;49.516;8.286;2024-02-21T02:36:14;101182.47;;;8.54;100.00
62849;BME280;48941;49.516;8.286;2024-02-21T02:38:44;101186.59;;;8.44;100.00
62849;BME280;48941;49.516;8.286;2024-02-21T02:41:13;101185.00;;;8.41;100.00
62849;BME280;48941;49.516;8.286;2024-02-21T02:43:40;101188.75;;;8.37;100.00
62849;BME280;48941;49.516;8.286;2024-02-21T02:46:08;101184.72;;;8.30;100.00
62849;BME280;48941;49.516;8.286;2024-02-21T02:48:36;101176.94;;;8.27;100.00
62849;BME280;48941;49.516;8.286;2024-02-21T02:51:05;101181.56;;;8.23;100.00
62849;BME280;48941;49.516;8.286;2024-02-21T02:53:32;101176.44;;;8.20;100.00
62849;BME280;48941;49.516;8.286;2024-02-21T02:56:00;101183.72;;;8.16;100.00
62849;BME280;48941;49.516;8.286;2024-02-21T02:58:29;101183.13;;;8.11;100.00
62849;BME280;48941;49.516;8.286;2024-02-21T03:00:57;101189.63;;;8.06;100.00
62849;BME280;48941;49.516;8.286;2024-02-21T03:03:25;101181.59;;;8.07;100.00
62849;BME280;48941;49.516;8.286;2024-02-21T03:05:52;101179.78;;;8.08;100.00
62849;BME280;48941;49.516;8.286;2024-02-21T03:08:20;101176.28;;;8.07;100.00
62849;BME280;48941;49.516;8.286;2024-02-21T03:10:49;101182.44;;;8.08;100.00
62849;BME280;48941;49.516;8.286;2024-02-21T03:13:17;101164.03;;;8.05;100.00
62849;BME280;48941;49.516;8.286;2024-02-21T03:15:47;101161.50;;;8.03;100.00
62849;BME280;48941;49.516;8.286;2024-02-21T03:18:14;101156.28;;;8.02;100.00
62849;BME280;48941;49.516;8.286;2024-02-21T03:20:42;101152.84;;;8.00;100.00
62849;BME280;48941;49.516;8.286;2024-02-21T03:23:10;101157.47;;;7.96;100.00
62849;BME280;48941;49.516;8.286;2024-02-21T03:25:37;101161.09;;;7.95;100.00
62849;BME280;48941;49.516;8.286;2024-02-21T03:28:05;101153.19;;;7.93;100.00
62849;BME280;48941;49.516;8.286;2024-02-21T03:30:33;101155.31;;;7.87;100.00
62849;BME280;48941;49.516;8.286;2024-02-21T03:33:03;101156.97;;;7.89;100.00
62849;BME280;48941;49.516;8.286;2024-02-21T03:35:31;101146.72;;;7.83;100.00
62849;BME280;48941;49.516;8.286;2024-02-21T03:37:59;101150.03;;;7.87;100.00
62849;BME280;48941;49.516;8.286;2024-02-21T03:40:27;101150.91;;;7.87;100.00
62849;BME280;48941;49.516;8.286;2024-02-21T03:42:54;101145.50;;;7.89;100.00
62849;BME280;48941;49.516;8.286;2024-02-21T03:45:22;101147.13;;;7.91;100.00
62849;BME280;48941;49.516;8.286;2024-02-21T03:47:50;101155.09;;;7.91;100.00
62849;BME280;48941;49.516;8.286;2024-02-21T03:50:19;101148.75;;;7.94;100.00
62849;BME280;48941;49.516;8.286;2024-02-21T03:52:46;101158.44;;;7.95;100.00
62849;BME280;48941;49.516;8.286;2024-02-21T03:55:14;101154.13;;;7.92;100.00
62849;BME280;48941;49.516;8.286;2024-02-21T03:57:42;101162.09;;;7.92;100.00
62849;BME280;48941;49.516;8.286;2024-02-21T04:00:10;101155.94;;;7.92;100.00
62849;BME280;48941;49.516;8.286;2024-02-21T04:02:38;101162.97;;;7.93;100.00
62849;BME280;48941;49.516;8.286;2024-02-21T04:05:06;101158.44;;;7.95;100.00
62849;BME280;48941;49.516;8.286;2024-02-21T04:07:39;101159.34;;;7.94;100.00
62849;BME280;48941;49.516;8.286;2024-02-21T04:10:08;101153.19;;;7.93;100.00
62849;BME280;48941;49.516;8.286;2024-02-21T04:12:35;101147.91;;;7.93;100.00
62849;BME280;48941;49.516;8.286;2024-02-21T04:15:05;101147.13;;;7.91;100.00
62849;BME280;48941;49.516;8.286;2024-02-21T04:17:32;101140.22;;;7.89;100.00
62849;BME280;48941;49.516;8.286;2024-02-21T04:20:02;101139.25;;;7.90;100.00
62849;BME280;48941;49.516;8.286;2024-02-21T04:22:32;101133.34;;;7.85;100.00
62849;BME280;48941;49.516;8.286;2024-02-21T04:25:02;101131.66;;;7.84;100.00
62849;BME280;48941;49.516;8.286;2024-02-21T04:27:30;101130.88;;;7.82;100.00
62849;BME280;48941;49.516;8.286;2024-02-21T04:29:58;101121.88;;;7.84;100.00
62849;BME280;48941;49.516;8.286;2024-02-21T04:32:26;101117.34;;;7.86;100.00
62849;BME280;48941;49.516;8.286;2024-02-21T04:34:54;101118.19;;;7.87;100.00
62849;BME280;48941;49.516;8.286;2024-02-21T04:37:22;101116.59;;;7.84;100.00
62849;BME280;48941;49.516;8.286;2024-02-21T04:39:50;101111.47;;;7.81;100.00
62849;BME280;48941;49.516;8.286;2024-02-21T04:42:19;101107.16;;;7.78;100.00
62849;BME280;48941;49.516;8.286;2024-02-21T04:44:47;101097.31;;;7.81;100.00
62849;BME280;48941;49.516;8.286;2024-02-21T04:47:14;101087.75;;;7.78;100.00
62849;BME280;48941;49.516;8.286;2024-02-21T04:49:42;101078.19;;;7.75;100.00
62849;BME280;48941;49.516;8.286;2024-02-21T04:52:10;101073.72;;;7.76;100.00
62849;BME280;48941;49.516;8.286;2024-02-21T04:54:38;101062.38;;;7.74;100.00
62849;BME280;48941;49.516;8.286;2024-02-21T04:57:06;101056.28;;;7.72;100.00
62849;BME280;48941;49.516;8.286;2024-02-21T04:59:35;101069.47;;;7.73;100.00
62849;BME280;48941;49.516;8.286;2024-02-21T05:02:03;101063.41;;;7.71;100.00
62849;BME280;48941;49.516;8.286;2024-02-21T05:04:31;101070.59;;;7.69;100.00
62849;BME280;48941;49.516;8.286;2024-02-21T05:07:00;101078.53;;;7.69;100.00
62849;BME280;48941;49.516;8.286;2024-02-21T05:09:28;101072.28;;;7.70;100.00
62849;BME280;48941;49.516;8.286;2024-02-21T05:11:55;101076.91;;;7.67;100.00
62849;BME280;48941;49.516;8.286;2024-02-21T05:14:25;101067.19;;;7.67;100.00
62849;BME280;48941;49.516;8.286;2024-02-21T05:16:54;101057.41;;;7.68;100.00
62849;BME280;48941;49.516;8.286;2024-02-21T05:19:22;101062.72;;;7.68;100.00
62849;BME280;48941;49.516;8.286;2024-02-21T05:21:50;101065.53;;;7.65;100.00
62849;BME280;48941;49.516;8.286;2024-02-21T05:24:18;101068.19;;;7.65;100.00
62849;BME280;48941;49.516;8.286;2024-02-21T05:26:45;101065.53;;;7.65;100.00
62849;BME280;48941;49.516;8.286;2024-02-21T05:29:13;101055.19;;;7.60;100.00
62849;BME280;48941;49.516;8.286;2024-02-21T05:31:56;101050.09;;;7.57;100.00
62849;BME280;48941;49.516;8.286;2024-02-21T05:34:25;101048.44;;;7.54;100.00
62849;BME280;48941;49.516;8.286;2024-02-21T05:36:53;101044.94;;;7.54;100.00
62849;BME280;48941;49.516;8.286;2024-02-21T05:39:21;101041.53;;;7.52;100.00
62849;BME280;48941;49.516;8.286;2024-02-21T05:41:50;101050.31;;;7.52;100.00
62849;BME280;48941;49.516;8.286;2024-02-21T05:44:18;101045.13;;;7.51;100.00
62849;BME280;48941;49.516;8.286;2024-02-21T05:46:48;101049.63;;;7.49;100.00
62849;BME280;48941;49.516;8.286;2024-02-21T05:49:18;101049.22;;;7.41;100.00
62849;BME280;48941;49.516;8.286;2024-02-21T05:51:46;101050.53;;;7.33;100.00
62849;BME280;48941;49.516;8.286;2024-02-21T05:54:13;101042.94;;;7.27;100.00
62849;BME280;48941;49.516;8.286;2024-02-21T05:56:44;101050.19;;;7.24;100.00
62849;BME280;48941;49.516;8.286;2024-02-21T05:59:12;101049.56;;;7.18;100.00
62849;BME280;48941;49.516;8.286;2024-02-21T06:01:40;101046.56;;;7.09;100.00
62849;BME280;48941;49.516;8.286;2024-02-21T06:04:08;101046.75;;;7.06;100.00
62849;BME280;48941;49.516;8.286;2024-02-21T06:06:37;101043.25;;;7.05;100.00
62849;BME280;48941;49.516;8.286;2024-02-21T06:09:05;101047.09;;;7.00;100.00
62849;BME280;48941;49.516;8.286;2024-02-21T06:11:33;101043.81;;;6.94;100.00
62849;BME280;48941;49.516;8.286;2024-02-21T06:14:04;101047.66;;;6.89;100.00
62849;BME280;48941;49.516;8.286;2024-02-21T06:16:32;101047.84;;;6.86;100.00
62849;BME280;48941;49.516;8.286;2024-02-21T06:18:59;101054.31;;;6.80;100.00
62849;BME280;48941;49.516;8.286;2024-02-21T06:21:29;101056.19;;;6.78;100.00
62849;BME280;48941;49.516;8.286;2024-02-21T06:23:58;101050.97;;;6.76;100.00
62849;BME280;48941;49.516;8.286;2024-02-21T06:26:25;101049.44;;;6.72;100.00
62849;BME280;48941;49.516;8.286;2024-02-21T06:28:53;101052.00;;;6.74;100.00
62849;BME280;48941;49.516;8.286;2024-02-21T06:31:21;101046.63;;;6.75;100.00
62849;BME280;48941;49.516;8.286;2024-02-21T06:33:49;101031.75;;;6.73;100.00
62849;BME280;48941;49.516;8.286;2024-02-21T06:36:17;101021.34;;;6.70;100.00
62849;BME280;48941;49.516;8.286;2024-02-21T06:38:44;101019.72;;;6.67;100.00
62849;BME280;48941;49.516;8.286;2024-02-21T06:41:16;101031.16;;;6.68;100.00
62849;BME280;48941;49.516;8.286;2024-02-21T06:43:45;101019.72;;;6.67;100.00
62849;BME280;48941;49.516;8.286;2024-02-21T06:46:22;101014.56;;;6.64;100.00
62849;BME280;48941;49.516;8.286;2024-02-21T06:48:50;101023.63;;;6.60;100.00
62849;BME280;48941;49.516;8.286;2024-02-21T06:51:18;101031.63;;;6.58;100.00
62849;BME280;48941;49.516;8.286;2024-02-21T06:53:46;101038.72;;;6.58;100.00
62849;BME280;48941;49.516;8.286;2024-02-21T06:56:15;101038.09;;;6.53;100.00
62849;BME280;48941;49.516;8.286;2024-02-21T06:58:43;101034.53;;;6.54;100.00
62849;BME280;48941;49.516;8.286;2024-02-21T07:01:11;101023.19;;;6.52;100.00
62849;BME280;48941;49.516;8.286;2024-02-21T07:03:39;101030.34;;;6.50;100.00
62849;BME280;48941;49.516;8.286;2024-02-21T07:06:06;101029.38;;;6.51;100.00
62849;BME280;48941;49.516;8.286;2024-02-21T07:08:34;101027.63;;;6.51;100.00
62849;BME280;48941;49.516;8.286;2024-02-21T07:11:02;101020.59;;;6.50;100.00
62849;BME280;48941;49.516;8.286;2024-02-21T07:13:31;101022.16;;;6.54;100.00
62849;BME280;48941;49.516;8.286;2024-02-21T07:15:59;101015.88;;;6.57;100.00
62849;BME280;48941;49.516;8.286;2024-02-21T07:18:27;101014.91;;;6.58;100.00
62849;BME280;48941;49.516;8.286;2024-02-21T07:20:55;101019.19;;;6.61;100.00
62849;BME280;48941;49.516;8.286;2024-02-21T07:23:23;101020.81;;;6.63;100.00
62849;BME280;48941;49.516;8.286;2024-02-21T07:25:51;101012.69;;;6.66;100.00
62849;BME280;48941;49.516;8.286;2024-02-21T07:28:19;101016.97;;;6.69;100.00
62849;BME280;48941;49.516;8.286;2024-02-21T07:30:48;101017.66;;;6.72;100.00
62849;BME280;48941;49.516;8.286;2024-02-21T07:33:16;101010.34;;;6.77;100.00
62849;BME280;48941;49.516;8.286;2024-02-21T07:35:43;101014.59;;;6.80;100.00
62849;BME280;48941;49.516;8.286;2024-02-21T07:38:11;101010.84;;;6.84;100.00
62849;BME280;48941;49.516;8.286;2024-02-21T07:40:40;101013.25;;;6.89;100.00
62849;BME280;48941;49.516;8.286;2024-02-21T07:43:09;101003.25;;;6.94;100.00
62849;BME280;48941;49.516;8.286;2024-02-21T07:45:37;101003.25;;;6.94;100.00
62849;BME280;48941;49.516;8.286;2024-02-21T07:48:07;101008.41;;;6.97;100.00
62849;BME280;48941;49.516;8.286;2024-02-21T07:50:35;101009.94;;;7.01;100.00
62849;BME280;48941;49.516;8.286;2024-02-21T07:53:03;101005.50;;;7.02;100.00
62849;BME280;48941;49.516;8.286;2024-02-21T07:55:32;100999.22;;;7.03;100.00
62849;BME280;48941;49.516;8.286;2024-02-21T07:57:59;100992.81;;;7.07;100.00
62849;BME280;48941;49.516;8.286;2024-02-21T08:00:27;100990.78;;;7.12;100.00
62849;BME280;48941;49.516;8.286;2024-02-21T08:02:55;100984.28;;;7.17;100.00
62849;BME280;48941;49.516;8.286;2024-02-21T08:05:24;100984.97;;;7.21;100.00
62849;BME280;48941;49.516;8.286;2024-02-21T08:07:52;100976.91;;;7.23;100.00
62849;BME280;48941;49.516;8.286;2024-02-21T08:10:24;100973.16;;;7.27;100.00
62849;BME280;48941;49.516;8.286;2024-02-21T08:12:51;100968.63;;;7.29;100.00
62849;BME280;48941;49.516;8.286;2024-02-21T08:15:19;100966.66;;;7.32;100.00
62849;BME280;48941;49.516;8.286;2024-02-21T08:17:53;100966.66;;;7.32;100.00
62849;BME280;48941;49.516;8.286;2024-02-21T08:20:26;100967.53;;;7.33;100.00
62849;BME280;48941;49.516;8.286;2024-02-21T08:22:54;100964.78;;;7.34;100.00
62849;BME280;48941;49.516;8.286;2024-02-21T08:25:22;100962.03;;;7.36;100.00
62849;BME280;48941;49.516;8.286;2024-02-21T08:27:50;100959.88;;;7.43;100.00
62849;BME280;48941;49.516;8.286;2024-02-21T08:30:19;100963.22;;;7.46;100.00
62849;BME280;48941;49.516;8.286;2024-02-21T08:32:46;100944.56;;;7.48;100.00
62849;BME280;48941;49.516;8.286;2024-02-21T08:35:14;100946.94;;;7.52;100.00
62849;BME280;48941;49.516;8.286;2024-02-21T08:37:47;100946.03;;;7.53;100.00
62849;BME280;48941;49.516;8.286;2024-02-21T08:40:15;100944.97;;;7.56;100.00
62849;BME280;48941;49.516;8.286;2024-02-21T08:42:44;100943.94;;;7.58;100.00
62849;BME280;48941;49.516;8.286;2024-02-21T08:45:12;100937.41;;;7.64;100.00
62849;BME280;48941;49.516;8.286;2024-02-21T08:47:40;100945.09;;;7.69;100.00
62849;BME280;48941;49.516;8.286;2024-02-21T08:50:09;100942.94;;;7.75;100.00
62849;BME280;48941;49.516;8.286;2024-02-21T08:52:54;100938.03;;;7.84;100.00
62849;BME280;48941;49.516;8.286;2024-02-21T08:55:22;100937.59;;;7.91;100.00
62849;BME280;48941;49.516;8.286;2024-02-21T08:57:50;100930.69;;;8.03;100.00
62849;BME280;48941;49.516;8.286;2024-02-21T09:00:18;100930.78;;;8.16;100.00
62849;BME280;48941;49.516;8.286;2024-02-21T09:02:51;100933.53;;;8.29;100.00
62849;BME280;48941;49.516;8.286;2024-02-21T09:05:18;100924.72;;;8.43;100.00
62849;BME280;48941;49.516;8.286;2024-02-21T09:07:47;100921.97;;;8.58;100.00
62849;BME280;48941;49.516;8.286;2024-02-21T09:10:16;100912.94;;;8.75;100.00
62849;BME280;48941;49.516;8.286;2024-02-21T09:12:44;100907.78;;;8.87;100.00
62849;BME280;48941;49.516;8.286;2024-02-21T09:15:12;100896.53;;;8.96;100.00
62849;BME280;48941;49.516;8.286;2024-02-21T09:17:40;100895.63;;;9.10;100.00
62849;BME280;48941;49.516;8.286;2024-02-21T09:20:08;100898.13;;;9.26;100.00
62849;BME280;48941;49.516;8.286;2024-02-21T09:22:38;100897.22;;;9.40;100.00
62849;BME280;48941;49.516;8.286;2024-02-21T09:25:08;100899.47;;;9.46;100.00
62849;BME280;48941;49.516;8.286;2024-02-21T09:27:39;100890.00;;;9.54;100.00
62849;BME280;48941;49.516;8.286;2024-02-21T09:30:07;100888.53;;;9.63;100.00
62849;BME280;48941;49.516;8.286;2024-02-21T09:32:35;100886.19;;;9.71;100.00
62849;BME280;48941;49.516;8.286;2024-02-21T09:35:05;100883.03;;;9.79;100.00
62849;BME280;48941;49.516;8.286;2024-02-21T09:37:33;100883.03;;;9.79;100.00
62849;BME280;48941;49.516;8.286;2024-02-21T09:40:01;100886.31;;;9.83;100.00
62849;BME280;48941;49.516;8.286;2024-02-21T09:42:36;100880.56;;;9.89;100.00
62849;BME280;48941;49.516;8.286;2024-02-21T09:45:08;100886.75;;;9.89;100.00
62849;BME280;48941;49.516;8.286;2024-02-21T09:47:45;100880.25;;;9.93;100.00
62849;BME280;48941;49.516;8.286;2024-02-21T09:50:17;100879.91;;;9.98;100.00
62849;BME280;48941;49.516;8.286;2024-02-21T09:52:45;100868.44;;;9.97;100.00
62849;BME280;48941;49.516;8.286;2024-02-21T09:55:15;100868.31;;;9.99;100.00
62849;BME280;48941;49.516;8.286;2024-02-21T09:57:44;100857.16;;;10.07;100.00
62849;BME280;48941;49.516;8.286;2024-02-21T10:00:14;100864.69;;;10.13;100.00
62849;BME280;48941;49.516;8.286;2024-02-21T10:02:48;100855.72;;;10.14;100.00
62849;BME280;48941;49.516;8.286;2024-02-21T10:05:16;100849.38;;;10.16;100.00
62849;BME280;48941;49.516;8.286;2024-02-21T10:07:45;100843.16;;;10.16;100.00
62849;BME280;48941;49.516;8.286;2024-02-21T10:10:13;100842.97;;;10.19;100.00
62849;BME280;48941;49.516;8.286;2024-02-21T10:12:48;100831.88;;;10.25;100.00
62849;BME280;48941;49.516;8.286;2024-02-21T10:15:20;100842.22;;;10.30;100.00
62849;BME280;48941;49.516;8.286;2024-02-21T10:17:48;100840.41;;;10.30;100.00
62849;BME280;48941;49.516;8.286;2024-02-21T10:20:16;100829.53;;;10.33;100.00
62849;BME280;48941;49.516;8.286;2024-02-21T10:22:44;100826.78;;;10.35;100.00
62849;BME280;48941;49.516;8.286;2024-02-21T10:25:12;100824.22;;;10.33;100.00
62849;BME280;48941;49.516;8.286;2024-02-21T10:27:40;100827.41;;;10.39;100.00
62849;BME280;48941;49.516;8.286;2024-02-21T10:30:13;100827.28;;;10.40;100.00
62849;BME280;48941;49.516;8.286;2024-02-21T10:32:50;100821.00;;;10.41;100.00
62849;BME280;48941;49.516;8.286;2024-02-21T10:35:28;100813.50;;;10.46;100.00
62849;BME280;48941;49.516;8.286;2024-02-21T10:37:57;100815.75;;;10.52;100.00
62849;BME280;48941;49.516;8.286;2024-02-21T10:40:27;100807.75;;;10.52;100.00
62849;BME280;48941;49.516;8.286;2024-02-21T10:42:58;100803.28;;;10.53;100.00
62849;BME280;48941;49.516;8.286;2024-02-21T10:45:29;100797.13;;;10.52;100.00
62849;BME280;48941;49.516;8.286;2024-02-21T10:48:08;100796.25;;;10.52;100.00
62849;BME280;48941;49.516;8.286;2024-02-21T10:50:51;100787.50;;;10.50;100.00
62849;BME280;48941;49.516;8.286;2024-02-21T10:53:24;100784.53;;;10.54;100.00
62849;BME280;48941;49.516;8.286;2024-02-21T10:55:58;100773.13;;;10.52;100.00
62849;BME280;48941;49.516;8.286;2024-02-21T10:58:30;100779.41;;;10.51;100.00
62849;BME280;48941;49.516;8.286;2024-02-21T11:00:59;100778.78;;;10.48;100.00
62849;BME280;48941;49.516;8.286;2024-02-21T11:03:28;100764.63;;;10.47;100.00
62849;BME280;48941;49.516;8.286;2024-02-21T11:05:57;100768.75;;;10.51;100.00
62849;BME280;48941;49.516;8.286;2024-02-21T11:08:26;100766.72;;;10.55;100.00
62849;BME280;48941;49.516;8.286;2024-02-21T11:10:57;100756.56;;;10.60;100.00
62849;BME280;48941;49.516;8.286;2024-02-21T11:13:34;100750.66;;;10.68;100.00
62849;BME280;48941;49.516;8.286;2024-02-21T11:16:07;100749.72;;;10.69;100.00
62849;BME280;48941;49.516;8.286;2024-02-21T11:18:37;100744.38;;;10.69;100.00
62849;BME280;48941;49.516;8.286;2024-02-21T11:21:05;100739.78;;;10.71;100.00
62849;BME280;48941;49.516;8.286;2024-02-21T11:23:33;100730.97;;;10.70;100.00
62849;BME280;48941;49.516;8.286;2024-02-21T11:26:05;100732.66;;;10.71;100.00
62849;BME280;48941;49.516;8.286;2024-02-21T11:28:33;100729.97;;;10.71;100.00
62849;BME280;48941;49.516;8.286;2024-02-21T11:31:10;100722.09;;;10.70;100.00
62849;BME280;48941;49.516;8.286;2024-02-21T11:33:42;100718.47;;;10.71;100.00
62849;BME280;48941;49.516;8.286;2024-02-21T11:36:10;100719.94;;;10.75;100.00
62849;BME280;48941;49.516;8.286;2024-02-21T11:38:38;100706.84;;;10.72;100.00
62849;BME280;48941;49.516;8.286;2024-02-21T11:41:08;100699.44;;;10.64;100.00
62849;BME280;48941;49.516;8.286;2024-02-21T11:43:38;100691.31;;;10.66;100.00
62849;BME280;48941;49.516;8.286;2024-02-21T11:46:06;100690.50;;;10.65;100.00
62849;BME280;48941;49.516;8.286;2024-02-21T11:48:34;100691.22;;;10.67;100.00
62849;BME280;48941;49.516;8.286;2024-02-21T11:51:04;100690.25;;;10.68;100.00
62849;BME280;48941;49.516;8.286;2024-02-21T11:53:32;100685.69;;;10.70;100.00
62849;BME280;48941;49.516;8.286;2024-02-21T11:56:06;100680.09;;;10.73;100.00
62849;BME280;48941;49.516;8.286;2024-02-21T11:58:34;100672.22;;;10.72;100.00
62849;BME280;48941;49.516;8.286;2024-02-21T12:01:03;100664.13;;;10.73;100.00
62849;BME280;48941;49.516;8.286;2024-02-21T12:03:31;100657.94;;;10.73;100.00
62849;BME280;48941;49.516;8.286;2024-02-21T12:06:00;100655.03;;;10.76;100.00
62849;BME280;48941;49.516;8.286;2024-02-21T12:08:41;100651.63;;;10.74;100.00
62849;BME280;48941;49.516;8.286;2024-02-21T12:11:19;100656.00;;;10.75;100.00
62849;BME280;48941;49.516;8.286;2024-02-21T12:13:48;100631.31;;;10.73;100.00
62849;BME280;48941;49.516;8.286;2024-02-21T12:16:27;100633.59;;;10.77;100.00
62849;BME280;48941;49.516;8.286;2024-02-21T12:18:55;100633.22;;;10.82;100.00
62849;BME280;48941;49.516;8.286;2024-02-21T12:21:24;100620.63;;;10.84;100.00
62849;BME280;48941;49.516;8.286;2024-02-21T12:23:56;100608.81;;;10.88;100.00
62849;BME280;48941;49.516;8.286;2024-02-21T12:26:23;100608.31;;;10.94;100.00
62849;BME280;48941;49.516;8.286;2024-02-21T12:28:52;100593.06;;;10.96;100.00
62849;BME280;48941;49.516;8.286;2024-02-21T12:31:20;100589.66;;;10.94;100.00
62849;BME280;48941;49.516;8.286;2024-02-21T12:33:49;100587.72;;;10.96;100.00
62849;BME280;48941;49.516;8.286;2024-02-21T12:36:18;100580.31;;;11.00;100.00
62849;BME280;48941;49.516;8.286;2024-02-21T12:38:47;100577.91;;;10.97;100.00
62849;BME280;48941;49.516;8.286;2024-02-21T12:41:16;100578.88;;;10.96;100.00
62849;BME280;48941;49.516;8.286;2024-02-21T12:43:44;100571.25;;;10.91;100.00
62849;BME280;48941;49.516;8.286;2024-02-21T12:46:12;100573.69;;;10.94;100.00
62849;BME280;48941;49.516;8.286;2024-02-21T12:48:39;100566.75;;;10.92;100.00
62849;BME280;48941;49.516;8.286;2024-02-21T12:51:08;100555.25;;;10.91;100.00
62849;BME280;48941;49.516;8.286;2024-02-21T12:53:35;100544.72;;;10.90;100.00
62849;BME280;48941;49.516;8.286;2024-02-21T12:56:04;100532.09;;;10.92;100.00